createdAt,value
2019-06-26T00:01:55.393Z,24.25
2019-06-26T00:04:23.873Z,24.23
2019-06-26T00:06:52.328Z,24.25
2019-06-26T00:09:20.833Z,24.31
2019-06-26T00:11:49.353Z,24.34
2019-06-26T00:14:17.811Z,24.38
2019-06-26T00:16:46.362Z,24.42
2019-06-26T00:19:14.882Z,24.42
2019-06-26T00:21:43.375Z,24.48
2019-06-26T00:24:11.901Z,24.61
2019-06-26T00:26:40.351Z,24.70
2019-06-26T00:29:08.831Z,24.83
2019-06-26T00:31:37.352Z,24.93
2019-06-26T00:34:05.870Z,25.02
2019-06-26T00:36:34.318Z,25.03
2019-06-26T00:39:03.508Z,25.12
2019-06-26T00:41:31.966Z,25.28
2019-06-26T00:44:00.521Z,25.29
2019-06-26T00:46:28.984Z,25.34
2019-06-26T00:48:57.439Z,25.40
2019-06-26T00:51:26.172Z,25.56
2019-06-26T00:53:54.625Z,25.68
2019-06-26T00:56:23.083Z,25.75
2019-06-26T00:58:51.565Z,25.83
2019-06-26T01:01:20.163Z,25.92
2019-06-26T01:03:50.276Z,26.03
2019-06-26T01:06:32.382Z,26.07
2019-06-26T01:09:01.022Z,26.09
2019-06-26T01:11:29.473Z,26.13
2019-06-26T01:13:58.547Z,26.09
2019-06-26T01:16:27.058Z,26.19
2019-06-26T01:18:55.534Z,26.29
2019-06-26T01:21:24.148Z,26.29
2019-06-26T01:23:52.639Z,26.29
2019-06-26T01:26:21.133Z,26.31
2019-06-26T01:28:49.587Z,26.39
2019-06-26T01:31:18.034Z,26.39
2019-06-26T01:33:46.515Z,26.46
2019-06-26T01:36:15.028Z,26.53
2019-06-26T01:38:43.517Z,26.47
2019-06-26T01:41:11.957Z,26.47
2019-06-26T01:43:40.427Z,26.53
2019-06-26T01:46:08.889Z,26.52
2019-06-26T01:48:37.377Z,26.54
2019-06-26T01:51:05.890Z,26.57
2019-06-26T01:53:34.374Z,26.55
2019-06-26T01:56:02.834Z,26.60
2019-06-26T01:58:31.312Z,26.59
2019-06-26T02:00:59.763Z,26.57
2019-06-26T02:03:28.255Z,26.61
2019-06-26T02:05:56.710Z,26.66
2019-06-26T02:08:25.165Z,26.62
2019-06-26T02:10:53.668Z,26.67
2019-06-26T02:13:22.116Z,26.62
2019-06-26T02:15:50.732Z,26.65
2019-06-26T02:18:33.069Z,26.66
2019-06-26T02:21:01.777Z,26.68
2019-06-26T02:23:30.226Z,26.66
2019-06-26T02:25:58.674Z,26.72
2019-06-26T02:28:27.193Z,26.79
2019-06-26T02:30:55.671Z,26.80
2019-06-26T02:33:24.181Z,26.78
2019-06-26T02:35:53.122Z,26.76
2019-06-26T02:38:21.710Z,26.78
2019-06-26T02:40:50.157Z,26.81
2019-06-26T02:43:18.616Z,26.83
2019-06-26T02:45:47.110Z,26.84
2019-06-26T02:48:15.629Z,26.83
2019-06-26T02:50:44.109Z,26.77
2019-06-26T02:53:12.566Z,26.73
2019-06-26T02:55:41.493Z,26.72
2019-06-26T02:58:09.943Z,26.59
2019-06-26T03:00:38.481Z,26.56
2019-06-26T03:03:07.132Z,26.55
2019-06-26T03:05:35.667Z,26.53
2019-06-26T03:08:04.185Z,26.50
2019-06-26T03:10:32.740Z,26.46
2019-06-26T03:13:01.198Z,26.47
2019-06-26T03:15:29.735Z,26.49
2019-06-26T03:17:58.197Z,26.53
2019-06-26T03:20:29.693Z,26.53
2019-06-26T03:22:58.195Z,26.54
2019-06-26T03:25:26.653Z,26.56
2019-06-26T03:27:55.206Z,26.49
2019-06-26T03:30:23.788Z,26.47
2019-06-26T03:32:52.274Z,26.47
2019-06-26T03:35:20.754Z,26.55
2019-06-26T03:37:49.181Z,26.49
2019-06-26T03:40:17.829Z,26.43
2019-06-26T03:42:46.345Z,26.43
2019-06-26T03:45:24.992Z,26.47
2019-06-26T03:47:45.219Z,26.47
2019-06-26T03:50:13.962Z,26.49
2019-06-26T03:52:42.416Z,26.46
2019-06-26T03:55:11.090Z,26.47
2019-06-26T03:57:39.641Z,26.46
2019-06-26T04:00:08.835Z,26.47
2019-06-26T04:02:37.396Z,26.49
2019-06-26T04:05:06.731Z,26.46
2019-06-26T04:07:35.204Z,26.40
2019-06-26T04:10:05.487Z,26.42
2019-06-26T04:12:34.097Z,26.42
2019-06-26T04:15:02.585Z,26.49
2019-06-26T04:17:31.075Z,26.53
2019-06-26T04:19:59.530Z,26.55
2019-06-26T04:22:28.012Z,26.56
2019-06-26T04:24:56.510Z,26.64
2019-06-26T04:27:24.953Z,26.65
2019-06-26T04:29:53.443Z,26.68
2019-06-26T04:32:21.878Z,26.72
2019-06-26T04:34:50.398Z,26.72
2019-06-26T04:37:18.874Z,26.77
2019-06-26T04:39:47.314Z,26.76
2019-06-26T04:42:15.809Z,26.78
2019-06-26T04:44:44.272Z,26.83
2019-06-26T04:47:12.701Z,26.83
2019-06-26T04:49:41.255Z,26.86
2019-06-26T04:52:09.701Z,26.90
2019-06-26T04:54:38.210Z,26.95
2019-06-26T04:57:06.660Z,26.93
2019-06-26T04:59:35.136Z,26.91
2019-06-26T05:02:03.642Z,26.99
2019-06-26T05:04:32.103Z,27.02
2019-06-26T05:07:00.730Z,27.01
2019-06-26T05:09:29.196Z,27.01
2019-06-26T05:11:57.747Z,27.02
2019-06-26T05:14:26.262Z,27.06
2019-06-26T05:16:54.741Z,27.18
2019-06-26T05:19:23.200Z,27.24
2019-06-26T05:21:51.635Z,27.24
2019-06-26T05:24:21.001Z,27.24
2019-06-26T05:26:49.521Z,27.30
2019-06-26T05:29:18.060Z,27.35
2019-06-26T05:31:46.521Z,27.39
2019-06-26T05:34:15.039Z,27.41
2019-06-26T05:36:43.483Z,27.42
2019-06-26T05:39:11.930Z,27.49
2019-06-26T05:41:40.420Z,27.58
2019-06-26T05:44:08.863Z,27.62
2019-06-26T05:46:37.353Z,27.59
2019-06-26T05:49:05.935Z,27.64
2019-06-26T05:51:34.439Z,27.68
2019-06-26T05:54:02.925Z,27.73
2019-06-26T05:56:31.368Z,27.75
2019-06-26T05:58:59.856Z,27.74
2019-06-26T06:01:28.379Z,27.72
2019-06-26T06:03:56.926Z,27.76
2019-06-26T06:06:40.744Z,27.68
2019-06-26T06:08:55.626Z,27.65
2019-06-26T06:11:24.113Z,27.63
2019-06-26T06:13:52.574Z,27.63
2019-06-26T06:16:21.061Z,27.62
2019-06-26T06:18:49.591Z,27.62
2019-06-26T06:21:18.081Z,27.59
2019-06-26T06:23:46.535Z,27.64
2019-06-26T06:26:15.018Z,27.67
2019-06-26T06:28:43.536Z,27.66
2019-06-26T06:31:11.993Z,27.68
2019-06-26T06:33:40.489Z,27.71
2019-06-26T06:36:09.901Z,27.75
2019-06-26T06:38:38.493Z,27.76
2019-06-26T06:41:06.940Z,27.77
2019-06-26T06:43:35.553Z,27.75
2019-06-26T06:46:04.079Z,27.83
2019-06-26T06:48:32.579Z,27.81
2019-06-26T06:51:01.035Z,27.77
2019-06-26T06:53:29.480Z,27.75
2019-06-26T06:55:57.963Z,27.76
2019-06-26T06:58:29.971Z,27.75
2019-06-26T07:00:56.710Z,27.71
2019-06-26T07:03:25.148Z,27.73
2019-06-26T07:05:53.624Z,27.78
2019-06-26T07:08:22.072Z,27.74
2019-06-26T07:10:50.537Z,27.74
2019-06-26T07:13:19.015Z,27.72
2019-06-26T07:15:47.451Z,27.67
2019-06-26T07:18:15.936Z,27.64
2019-06-26T07:20:44.842Z,27.64
2019-06-26T07:23:13.434Z,27.67
2019-06-26T07:25:41.887Z,27.71
2019-06-26T07:28:10.353Z,27.72
2019-06-26T07:30:38.810Z,27.80
2019-06-26T07:33:07.262Z,27.85
2019-06-26T07:35:35.877Z,27.92
2019-06-26T07:38:04.500Z,27.97
2019-06-26T07:40:32.975Z,27.99
2019-06-26T07:43:01.444Z,28.08
2019-06-26T07:45:29.878Z,28.17
2019-06-26T07:47:58.354Z,28.15
2019-06-26T07:50:26.808Z,28.19
2019-06-26T07:52:55.550Z,28.28
2019-06-26T07:55:24.013Z,28.43
2019-06-26T07:57:52.487Z,28.56
2019-06-26T08:00:21.296Z,28.68
2019-06-26T08:02:49.758Z,28.79
2019-06-26T08:05:18.744Z,28.85
2019-06-26T08:07:47.329Z,29.04
2019-06-26T08:10:16.402Z,29.15
2019-06-26T08:12:44.860Z,29.19
2019-06-26T08:15:13.682Z,29.46
2019-06-26T08:17:59.403Z,29.51
2019-06-26T08:20:14.249Z,29.51
2019-06-26T08:22:42.687Z,29.64
2019-06-26T08:25:11.519Z,29.69
2019-06-26T08:27:39.970Z,29.84
2019-06-26T08:30:09.658Z,29.97
2019-06-26T08:32:38.162Z,30.11
2019-06-26T08:35:08.254Z,30.02
2019-06-26T08:37:36.776Z,30.04
2019-06-26T08:40:06.919Z,30.07
2019-06-26T08:42:36.635Z,30.14
2019-06-26T08:45:07.548Z,30.30
2019-06-26T08:47:36.017Z,30.26
2019-06-26T08:50:07.679Z,30.46
2019-06-26T08:52:36.353Z,30.59
2019-06-26T08:55:09.445Z,30.60
2019-06-26T08:57:37.893Z,30.61
2019-06-26T09:00:09.510Z,30.79
2019-06-26T09:02:37.963Z,30.75
2019-06-26T09:05:06.990Z,30.78
2019-06-26T09:07:35.570Z,30.81
2019-06-26T09:10:06.053Z,31.05
2019-06-26T09:12:34.583Z,31.25
2019-06-26T09:15:03.522Z,31.16
2019-06-26T09:17:32.024Z,31.21
2019-06-26T09:20:00.473Z,31.18
2019-06-26T09:22:28.945Z,31.24
2019-06-26T09:24:57.398Z,31.19
2019-06-26T09:27:25.881Z,31.25
2019-06-26T09:29:54.483Z,31.34
2019-06-26T09:32:23.055Z,31.48
2019-06-26T09:34:51.580Z,31.62
2019-06-26T09:37:20.034Z,31.72
2019-06-26T09:39:48.511Z,31.54
2019-06-26T09:42:19.558Z,31.49
2019-06-26T09:44:47.156Z,31.48
2019-06-26T09:47:15.812Z,31.32
2019-06-26T09:49:44.279Z,31.64
2019-06-26T09:52:12.717Z,31.91
2019-06-26T09:54:41.165Z,32.05
2019-06-26T09:57:09.649Z,32.09
2019-06-26T09:59:38.095Z,31.85
2019-06-26T10:02:06.660Z,31.90
2019-06-26T10:04:35.192Z,31.85
2019-06-26T10:07:03.855Z,32.00
2019-06-26T10:09:32.317Z,31.96
2019-06-26T10:12:00.774Z,32.08
2019-06-26T10:14:46.517Z,32.17
2019-06-26T10:16:59.458Z,32.13
2019-06-26T10:19:27.977Z,32.11
2019-06-26T10:21:56.440Z,32.22
2019-06-26T10:24:24.892Z,32.45
2019-06-26T10:26:53.445Z,32.38
2019-06-26T10:29:21.890Z,32.35
2019-06-26T10:31:50.555Z,32.33
2019-06-26T10:34:19.052Z,32.23
2019-06-26T10:36:47.555Z,32.25
2019-06-26T10:39:16.037Z,32.31
2019-06-26T10:41:44.525Z,32.27
2019-06-26T10:44:12.976Z,32.27
2019-06-26T10:46:41.595Z,32.38
2019-06-26T10:49:25.811Z,32.35
2019-06-26T10:51:40.267Z,32.37
2019-06-26T10:54:08.719Z,32.40
2019-06-26T10:56:37.219Z,32.37
2019-06-26T10:59:05.670Z,32.28
2019-06-26T11:01:34.275Z,32.27
2019-06-26T11:04:02.833Z,32.33
2019-06-26T11:06:31.360Z,32.36
2019-06-26T11:08:59.861Z,32.25
2019-06-26T11:11:28.321Z,32.37
2019-06-26T11:13:56.878Z,32.44
2019-06-26T11:16:25.396Z,32.43
2019-06-26T11:18:53.890Z,32.67
2019-06-26T11:21:34.986Z,32.61
2019-06-26T11:24:17.094Z,32.68
2019-06-26T11:27:04.167Z,32.52
2019-06-26T11:29:31.882Z,32.72
2019-06-26T11:32:00.330Z,32.57
2019-06-26T11:34:28.784Z,32.68
2019-06-26T11:37:03.736Z,32.68
2019-06-26T11:39:28.276Z,32.62
2019-06-26T11:41:56.755Z,32.63
2019-06-26T11:44:25.307Z,32.58
2019-06-26T11:46:53.714Z,32.48
2019-06-26T11:49:22.194Z,32.45
2019-06-26T11:51:50.720Z,32.43
2019-06-26T11:54:19.277Z,32.65
2019-06-26T11:56:54.391Z,32.61
2019-06-26T11:59:33.795Z,32.56
2019-06-26T12:02:02.249Z,32.57
2019-06-26T12:04:30.708Z,32.66
2019-06-26T12:06:59.179Z,32.72
2019-06-26T12:09:27.633Z,32.65
2019-06-26T12:11:56.117Z,32.50
2019-06-26T12:14:24.580Z,32.53
2019-06-26T12:16:53.029Z,32.59
2019-06-26T12:19:23.548Z,32.71
2019-06-26T12:21:51.746Z,32.43
2019-06-26T12:24:20.259Z,32.50
2019-06-26T12:26:48.714Z,32.28
2019-06-26T12:29:17.220Z,32.41
2019-06-26T12:31:45.659Z,32.53
2019-06-26T12:34:14.118Z,32.51
2019-06-26T12:36:42.611Z,32.49
2019-06-26T12:39:11.066Z,32.43
2019-06-26T12:41:39.533Z,32.49
2019-06-26T12:44:07.980Z,32.62
2019-06-26T12:46:36.517Z,32.59
2019-06-26T12:49:05.033Z,32.58
2019-06-26T12:51:33.529Z,32.56
2019-06-26T12:54:01.978Z,32.53
2019-06-26T12:56:30.780Z,32.47
2019-06-26T12:59:00.119Z,32.38
2019-06-26T13:01:28.749Z,32.42
2019-06-26T13:03:57.261Z,32.59
2019-06-26T13:06:25.772Z,32.56
2019-06-26T13:08:54.287Z,32.69
2019-06-26T13:11:22.845Z,32.67
2019-06-26T13:14:02.070Z,32.47
2019-06-26T13:16:21.491Z,32.42
2019-06-26T13:18:49.966Z,32.46
2019-06-26T13:21:18.465Z,32.45
2019-06-26T13:23:46.894Z,32.50
2019-06-26T13:26:15.414Z,32.38
2019-06-26T13:28:43.889Z,32.50
2019-06-26T13:31:12.423Z,32.53
2019-06-26T13:33:40.918Z,32.44
2019-06-26T13:36:09.370Z,32.34
2019-06-26T13:38:37.830Z,32.39
2019-06-26T13:41:06.369Z,32.42
2019-06-26T13:43:34.810Z,32.45
2019-06-26T13:46:03.300Z,32.50
2019-06-26T13:48:31.823Z,32.49
2019-06-26T13:51:09.524Z,32.44
2019-06-26T13:53:30.503Z,32.43
2019-06-26T13:55:58.958Z,32.28
2019-06-26T13:58:27.448Z,32.25
2019-06-26T14:00:55.884Z,32.35
2019-06-26T14:03:24.327Z,32.34
2019-06-26T14:05:52.806Z,32.38
2019-06-26T14:08:21.369Z,32.33
2019-06-26T14:10:49.915Z,32.28
2019-06-26T14:13:18.371Z,32.29
2019-06-26T14:15:46.813Z,32.35
2019-06-26T14:18:15.376Z,32.50
2019-06-26T14:20:43.830Z,32.41
2019-06-26T14:23:12.309Z,32.28
2019-06-26T14:25:40.774Z,32.24
2019-06-26T14:28:09.217Z,32.11
2019-06-26T14:30:37.699Z,32.16
2019-06-26T14:33:06.151Z,32.17
2019-06-26T14:35:34.703Z,32.05
2019-06-26T14:38:03.171Z,32.04
2019-06-26T14:40:31.664Z,32.00
2019-06-26T14:43:00.132Z,32.04
2019-06-26T14:45:28.581Z,32.08
2019-06-26T14:47:57.075Z,32.07
2019-06-26T14:50:25.535Z,32.07
2019-06-26T14:52:54.023Z,31.94
2019-06-26T14:55:22.540Z,31.92
2019-06-26T14:57:50.996Z,31.93
2019-06-26T15:00:20.115Z,31.88
2019-06-26T15:02:48.564Z,31.82
2019-06-26T15:05:17.534Z,31.86
2019-06-26T15:07:45.978Z,31.85
2019-06-26T15:10:14.870Z,31.79
2019-06-26T15:12:43.367Z,31.71
2019-06-26T15:15:12.254Z,31.69
2019-06-26T15:17:40.744Z,31.71
2019-06-26T15:20:09.730Z,31.61
2019-06-26T15:22:38.251Z,31.63
2019-06-26T15:25:07.731Z,31.58
2019-06-26T15:27:36.253Z,31.59
2019-06-26T15:30:07.062Z,31.51
2019-06-26T15:32:35.534Z,31.50
2019-06-26T15:35:07.198Z,31.47
2019-06-26T15:37:35.722Z,31.49
2019-06-26T15:40:06.271Z,31.48
2019-06-26T15:42:34.860Z,31.40
2019-06-26T15:45:03.364Z,31.39
2019-06-26T15:47:31.926Z,31.36
2019-06-26T15:50:00.380Z,31.39
2019-06-26T15:52:31.523Z,31.36
2019-06-26T15:54:59.089Z,31.24
2019-06-26T15:57:27.532Z,31.22
2019-06-26T15:59:56.020Z,31.18
2019-06-26T16:02:24.546Z,31.07
2019-06-26T16:04:53.025Z,30.96
2019-06-26T16:07:21.490Z,30.80
2019-06-26T16:09:50.033Z,30.70
2019-06-26T16:12:18.487Z,30.70
2019-06-26T16:14:46.951Z,30.60
2019-06-26T16:17:20.047Z,30.48
2019-06-26T16:19:48.498Z,30.37
2019-06-26T16:22:31.169Z,30.37
2019-06-26T16:24:47.172Z,30.24
2019-06-26T16:27:15.660Z,30.33
2019-06-26T16:29:44.116Z,30.30
2019-06-26T16:32:12.708Z,30.25
2019-06-26T16:34:41.164Z,30.19
2019-06-26T16:37:09.694Z,30.17
2019-06-26T16:39:38.238Z,30.11
2019-06-26T16:42:06.712Z,30.01
2019-06-26T16:44:35.195Z,29.92
2019-06-26T16:47:03.649Z,29.88
2019-06-26T16:49:32.156Z,29.84
2019-06-26T16:52:00.618Z,29.80
2019-06-26T16:54:29.080Z,29.75
2019-06-26T16:56:57.579Z,29.69
2019-06-26T16:59:26.018Z,29.61
2019-06-26T17:01:54.509Z,29.54
2019-06-26T17:04:22.969Z,29.48
2019-06-26T17:06:51.497Z,29.39
2019-06-26T17:09:19.994Z,29.27
2019-06-26T17:11:48.453Z,29.27
2019-06-26T17:14:16.953Z,29.18
2019-06-26T17:16:45.404Z,29.13
2019-06-26T17:19:13.951Z,29.02
2019-06-26T17:21:42.414Z,28.89
2019-06-26T17:24:10.930Z,28.81
2019-06-26T17:26:39.388Z,28.67
2019-06-26T17:29:07.839Z,28.60
2019-06-26T17:31:36.415Z,28.66
2019-06-26T17:34:05.013Z,28.58
2019-06-26T17:36:33.495Z,28.61
2019-06-26T17:39:02.057Z,28.56
2019-06-26T17:41:30.578Z,28.49
2019-06-26T17:43:59.028Z,28.41
2019-06-26T17:46:27.594Z,28.28
2019-06-26T17:48:56.067Z,28.22
2019-06-26T17:51:24.520Z,28.19
2019-06-26T17:53:53.016Z,28.06
2019-06-26T17:56:21.486Z,27.97
2019-06-26T17:58:50.011Z,27.91
2019-06-26T18:01:18.467Z,27.88
2019-06-26T18:03:47.011Z,27.76
2019-06-26T18:06:15.496Z,27.63
2019-06-26T18:08:43.945Z,27.56
2019-06-26T18:11:12.412Z,27.43
2019-06-26T18:13:40.922Z,27.37
2019-06-26T18:16:09.378Z,27.34
2019-06-26T18:18:37.837Z,27.26
2019-06-26T18:21:06.881Z,27.16
2019-06-26T18:23:38.448Z,27.05
2019-06-26T18:26:12.954Z,27.01
2019-06-26T18:28:35.965Z,26.97
2019-06-26T18:31:04.547Z,26.91
2019-06-26T18:33:33.031Z,26.85
2019-06-26T18:36:01.492Z,26.71
2019-06-26T18:38:29.978Z,26.62
2019-06-26T18:40:58.457Z,26.60
2019-06-26T18:43:26.917Z,26.49
2019-06-26T18:45:55.369Z,26.40
2019-06-26T18:48:25.011Z,26.33
2019-06-26T18:50:53.711Z,26.33
2019-06-26T18:53:22.163Z,26.30
2019-06-26T18:55:50.681Z,26.19
2019-06-26T18:58:19.178Z,26.15
2019-06-26T19:00:47.668Z,26.14
2019-06-26T19:03:16.144Z,26.15
2019-06-26T19:05:44.750Z,26.10
2019-06-26T19:08:13.200Z,26.15
2019-06-26T19:10:41.655Z,26.13
2019-06-26T19:13:10.124Z,26.06
2019-06-26T19:15:38.576Z,26.01
2019-06-26T19:18:07.101Z,25.92
2019-06-26T19:20:35.560Z,25.75
2019-06-26T19:23:04.118Z,25.76
2019-06-26T19:25:32.574Z,25.61
2019-06-26T19:28:01.083Z,25.54
2019-06-26T19:30:29.619Z,25.58
2019-06-26T19:32:58.143Z,25.48
2019-06-26T19:35:26.772Z,25.43
2019-06-26T19:37:55.230Z,25.43
2019-06-26T19:40:24.416Z,25.38
2019-06-26T19:42:52.997Z,25.22
2019-06-26T19:45:21.920Z,25.24
2019-06-26T19:47:50.449Z,25.11
2019-06-26T19:50:23.343Z,24.98
2019-06-26T19:52:50.099Z,24.96
2019-06-26T19:55:18.627Z,24.83
2019-06-26T19:57:47.105Z,24.73
2019-06-26T20:00:16.707Z,24.61
2019-06-26T20:02:45.198Z,24.56
2019-06-26T20:05:15.010Z,24.52
2019-06-26T20:07:43.506Z,24.49
2019-06-26T20:10:13.863Z,24.43
2019-06-26T20:12:42.453Z,24.26
2019-06-26T20:15:11.800Z,24.19
2019-06-26T20:17:40.246Z,24.21
2019-06-26T20:20:08.868Z,24.14
2019-06-26T20:22:37.381Z,24.04
2019-06-26T20:25:07.109Z,24.06
2019-06-26T20:27:35.698Z,24.05
2019-06-26T20:30:09.401Z,23.90
2019-06-26T20:32:36.011Z,23.86
2019-06-26T20:35:06.680Z,23.76
2019-06-26T20:37:35.198Z,23.61
2019-06-26T20:40:05.677Z,23.48
2019-06-26T20:42:34.190Z,23.43
2019-06-26T20:45:02.706Z,23.34
2019-06-26T20:47:31.239Z,23.30
2019-06-26T20:49:59.653Z,23.22
2019-06-26T20:52:28.150Z,23.12
2019-06-26T20:55:02.130Z,23.12
2019-06-26T20:57:26.813Z,22.98
2019-06-26T20:59:55.268Z,22.96
2019-06-26T21:02:23.764Z,22.94
2019-06-26T21:04:52.212Z,22.92
2019-06-26T21:07:21.003Z,22.91
2019-06-26T21:09:49.458Z,22.80
2019-06-26T21:12:18.206Z,22.73
2019-06-26T21:14:46.722Z,22.68
2019-06-26T21:17:15.173Z,22.54
2019-06-26T21:19:43.671Z,22.58
2019-06-26T21:22:12.114Z,22.51
2019-06-26T21:24:40.618Z,22.39
2019-06-26T21:27:09.060Z,22.24
2019-06-26T21:29:37.560Z,22.31
2019-06-26T21:32:06.016Z,22.31
2019-06-26T21:34:34.456Z,22.24
2019-06-26T21:37:02.958Z,22.18
2019-06-26T21:39:31.409Z,22.09
2019-06-26T21:41:59.897Z,22.04
2019-06-26T21:44:28.352Z,22.02
2019-06-26T21:46:56.841Z,21.91
2019-06-26T21:49:25.294Z,21.87
2019-06-26T21:51:53.792Z,21.93
2019-06-26T21:54:22.295Z,21.88
2019-06-26T21:56:50.741Z,21.79
2019-06-26T21:59:19.233Z,21.70
2019-06-26T22:01:47.822Z,21.74
2019-06-26T22:04:16.499Z,21.72
2019-06-26T22:06:45.253Z,21.67
2019-06-26T22:09:14.189Z,21.48
2019-06-26T22:11:42.773Z,21.39
2019-06-26T22:14:11.228Z,21.37
2019-06-26T22:16:39.713Z,21.32
2019-06-26T22:19:08.215Z,21.24
2019-06-26T22:21:36.703Z,21.10
2019-06-26T22:24:05.166Z,20.99
2019-06-26T22:26:33.766Z,20.80
2019-06-26T22:29:02.493Z,20.80
2019-06-26T22:31:31.034Z,20.75
2019-06-26T22:33:59.539Z,20.60
2019-06-26T22:36:28.058Z,20.64
2019-06-26T22:38:56.531Z,20.50
2019-06-26T22:41:24.988Z,20.43
2019-06-26T22:43:53.476Z,20.33
2019-06-26T22:46:21.926Z,20.27
2019-06-26T22:48:50.442Z,20.24
2019-06-26T22:51:18.989Z,20.18
2019-06-26T22:53:47.522Z,19.99
2019-06-26T22:56:16.014Z,20.05
2019-06-26T22:58:44.474Z,19.89
2019-06-26T23:01:12.980Z,19.83
2019-06-26T23:03:41.428Z,19.91
2019-06-26T23:06:09.893Z,19.69
2019-06-26T23:08:38.369Z,19.51
2019-06-26T23:11:06.904Z,19.52
2019-06-26T23:13:35.400Z,19.56
2019-06-26T23:16:03.913Z,19.38
2019-06-26T23:18:32.409Z,19.46
2019-06-26T23:21:00.874Z,19.30
2019-06-26T23:23:29.379Z,19.36
2019-06-26T23:25:57.897Z,19.24
2019-06-26T23:28:26.354Z,19.34
2019-06-26T23:30:54.892Z,19.38
2019-06-26T23:33:23.404Z,19.19
2019-06-26T23:35:51.907Z,19.24
2019-06-26T23:38:20.682Z,19.03
2019-06-26T23:40:49.164Z,19.02
2019-06-26T23:43:17.630Z,18.97
2019-06-26T23:45:46.202Z,18.90
2019-06-26T23:48:14.667Z,18.78
2019-06-26T23:50:43.123Z,18.72
2019-06-26T23:53:11.615Z,18.72
2019-06-26T23:55:40.061Z,18.77
2019-06-26T23:58:08.549Z,18.99
